Cape Express — HO5337 — position and weather

sailwx.info

Track history (hours):
 
Tides and Currents Weather Stations Pressure Air Temp Water Temp Dewpoint Dewpoint Depression Visibility Wind Speed Wind Dir Waves Ship Positions

Cape Express

Last reported at 2018-Apr-18 03:57 UTC. Time now 2018-Apr-20 03:09 UTC.
Position N 26°05' W 079°34'.

Length 29 m; draft 6.1 m.

Type: Cargo ship. MMSI: 370269000.

Date/timePositionNaut miles runAvg speedWind from/ knotsBaromVisibWave heightAir tempDewpointWater temp
2018-Apr-18 03:57N 26°05' W 079°34'4 8.9
2018-Apr-18 03:30N 26°05' W 079°39'4 8.9
2018-Apr-18 03:00N 26°05' W 079°44'4 8.7
2018-Apr-18 02:30N 26°05' W 079°49'4 8.5
2018-Apr-18 02:00N 26°06' W 079°53'4 8.5
2018-Apr-18 01:30N 26°06' W 079°58'5 9.5
2018-Apr-18 01:00N 26°06' W 080°03'3 6.8
2018-Apr-18 00:30N 26°04' W 080°07'1 2.3
2018-Apr-18 00:00N 26°04' W 080°08'0 0.0
2018-Apr-17 23:31N 26°04' W 080°08'0 0.0
2018-Apr-17 23:00N 26°04' W 080°08'0 0.0
2018-Apr-17 22:30N 26°04' W 080°08'0 0.0
2018-Apr-17 22:00N 26°04' W 080°08'0 0.0
2018-Apr-17 21:30N 26°04' W 080°08'0 0.0
2018-Apr-17 21:01N 26°04' W 080°08'0 0.0
2018-Apr-17 20:31N 26°04' W 080°08'0 0.0
2018-Apr-17 20:01N 26°04' W 080°08'0 0.0
2018-Apr-17 19:30N 26°04' W 080°08'1 1.4
2018-Apr-17 19:00N 26°04' W 080°07'3 6.2
2018-Apr-17 18:31N 26°06' W 080°04'4 8.6
2018-Apr-17 18:00N 26°09' W 080°01'4 8.9
2018-Apr-17 17:31N 26°10' W 079°56'4 8.3
2018-Apr-17 17:01N 26°11' W 079°52'4 7.9
2018-Apr-17 16:27N 26°12' W 079°47'11 0.8
2018-Apr-17 02:54N 26°15' W 079°35'510.3
2018-Apr-17 02:25N 26°13' W 079°40'4 9.9
2018-Apr-17 01:59N 26°12' W 079°45'510.3
2018-Apr-17 01:29N 26°09' W 079°49'4 8.2
2018-Apr-17 01:00N 26°09' W 079°54'5 9.8
2018-Apr-17 00:30N 26°08' W 079°59'5 9.4
2018-Apr-17 00:00N 26°06' W 080°04'3 6.5
2018-Apr-16 23:30N 26°04' W 080°07'1 1.9
2018-Apr-16 23:00N 26°04' W 080°08'0 0.0
2018-Apr-16 22:30N 26°04' W 080°08'0 0.0
2018-Apr-16 22:01N 26°04' W 080°08'0 0.0
2018-Apr-16 21:31N 26°04' W 080°08'0 0.0
2018-Apr-16 21:00N 26°04' W 080°08'0 0.0
2018-Apr-16 20:31N 26°04' W 080°08'0 0.0
2018-Apr-16 20:00N 26°04' W 080°08'0 0.0
2018-Apr-16 19:31N 26°04' W 080°08'0 0.0
2018-Apr-16 19:01N 26°04' W 080°08'0 0.0
2018-Apr-16 18:30N 26°04' W 080°08'0 0.0
2018-Apr-16 18:01N 26°04' W 080°08'0 0.6
2018-Apr-16 17:31N 26°04' W 080°07'3 5.5
2018-Apr-16 17:01N 26°06' W 080°05'5 9.6
2018-Apr-16 16:30N 26°04' W 080°00'510.0
2018-Apr-16 15:59N 26°02' W 079°55'5 9.6
2018-Apr-16 15:29N 25°60' W 079°50'4 9.4
2018-Apr-16 15:00N 25°57' W 079°46'5 9.3
2018-Apr-16 14:29N 25°55' W 079°42'6 0.2
2018-Apr-15 08:45N 25°51' W 079°36'2 5.6
2018-Apr-15 08:29N 25°52' W 079°37'3 5.4
2018-Apr-15 08:00N 25°53' W 079°40'3 5.4
2018-Apr-15 07:30N 25°55' W 079°42'3 5.4
2018-Apr-15 06:59N 25°56' W 079°45'3 5.6
2018-Apr-15 06:30N 25°57' W 079°48'3 5.5
2018-Apr-15 05:58N 25°59' W 079°51'3 6.0
2018-Apr-15 05:30N 25°60' W 079°53'3 6.5
2018-Apr-15 05:00N 26°02' W 079°57'4 7.2
2018-Apr-15 04:30N 26°03' W 080°00'4 7.4
2018-Apr-15 04:00N 26°05' W 080°04'3 6.1
2018-Apr-15 03:30N 26°05' W 080°07'1 2.6
2018-Apr-15 03:00N 26°04' W 080°08'0 0.0
2018-Apr-15 02:31N 26°04' W 080°08'0 0.0
2018-Apr-15 02:01N 26°04' W 080°08'0 0.0
2018-Apr-15 01:30N 26°04' W 080°08'0 0.0
2018-Apr-15 01:01N 26°04' W 080°08'0 0.0
2018-Apr-15 00:31N 26°04' W 080°08'0 0.0
2018-Apr-15 00:00N 26°04' W 080°08'0 0.0
2018-Apr-14 23:30N 26°04' W 080°08'0 0.0
2018-Apr-14 23:01N 26°04' W 080°08'0 0.1
2018-Apr-14 22:31N 26°04' W 080°08'0 0.0
2018-Apr-14 22:01N 26°04' W 080°08'0 0.0
2018-Apr-14 21:31N 26°04' W 080°08'0 0.0
2018-Apr-14 21:01N 26°04' W 080°08'0 0.0
2018-Apr-14 20:30N 26°04' W 080°08'0 0.0
2018-Apr-14 20:00N 26°04' W 080°08'0 0.0
2018-Apr-14 19:30N 26°04' W 080°08'0 0.0
2018-Apr-14 19:00N 26°04' W 080°08'0 0.0
2018-Apr-14 18:30N 26°04' W 080°08'0 0.0
2018-Apr-14 18:00N 26°04' W 080°08'0 0.0
2018-Apr-14 17:30N 26°04' W 080°08'0 0.0
2018-Apr-14 17:00N 26°04' W 080°08'0 0.0
2018-Apr-14 16:30N 26°04' W 080°08'0 0.0
2018-Apr-14 16:00N 26°04' W 080°08'0 0.0
2018-Apr-14 15:31N 26°04' W 080°08'0 0.0
2018-Apr-14 15:00N 26°04' W 080°08'0 0.1
2018-Apr-14 14:30N 26°04' W 080°08'2 4.7
2018-Apr-14 14:00N 26°06' W 080°06'510.1
2018-Apr-14 13:30N 26°05' W 080°01'510.5
2018-Apr-14 13:00N 26°03' W 079°55'510.3
2018-Apr-14 12:30N 26°01' W 079°50'  
2018-Apr-11 07:17N 25°58' W 079°38'2 8.7
2018-Apr-11 07:00N 25°59' W 079°41'4 8.3
2018-Apr-11 06:30N 26°00' W 079°45'4 8.1
2018-Apr-11 05:59N 26°01' W 079°50'4 7.7
2018-Apr-11 05:30N 26°03' W 079°54'4 7.4
2018-Apr-11 05:00N 26°04' W 079°58'4 7.2
2018-Apr-11 04:28N 26°05' W 080°02'4 9.3
2018-Apr-11 04:01N 26°06' W 080°06'2 4.8
2018-Apr-11 03:29N 26°04' W 080°08'0 0.1
2018-Apr-11 02:59N 26°04' W 080°08'0 0.0
2018-Apr-11 02:29N 26°04' W 080°08'0 0.0
2018-Apr-11 01:59N 26°04' W 080°08'0 0.0
2018-Apr-11 01:30N 26°04' W 080°08'0 0.4
2018-Apr-11 01:00N 26°04' W 080°08'2 3.5
2018-Apr-11 00:30N 26°05' W 080°07'5 8.1
2018-Apr-10 23:56N 26°05' W 080°02'410.3
2018-Apr-10 23:30N 26°03' W 079°57'  
2018-Apr-08 09:00N 25°58' W 079°37'5 9.1
2018-Apr-08 08:30N 25°59' W 079°42'4 8.4
2018-Apr-08 08:00N 26°01' W 079°46'4 8.5
2018-Apr-08 07:30N 26°02' W 079°51'4 8.8
2018-Apr-08 07:00N 26°03' W 079°55'5 9.1
2018-Apr-08 06:30N 26°04' W 080°00'5 9.2
2018-Apr-08 06:00N 26°06' W 080°05'2 4.3
2018-Apr-08 05:30N 26°04' W 080°07'1 2.2
2018-Apr-08 05:00N 26°04' W 080°08'0 0.0
2018-Apr-08 04:30N 26°04' W 080°08'0 0.0
2018-Apr-08 04:00N 26°04' W 080°08'  
Track history (hours):
 
Tides and Currents Weather Stations Pressure Air Temp Water Temp Dewpoint Dewpoint Depression Visibility Wind Speed Wind Dir Waves Ship Positions

Cape Express

Last reported at 2018-Apr-18 03:57 UTC. Time now 2018-Apr-20 03:09 UTC.
Position N 26°05' W 079°34'.

Length 29 m; draft 6.1 m.

Type: Cargo ship. MMSI: 370269000.

Date/timePositionNaut miles runAvg speedWind from/ knotsBaromVisibWave heightAir tempDewpointWater temp
2018-Apr-18 03:57N 26°05' W 079°34'4 8.9
2018-Apr-18 03:30N 26°05' W 079°39'4 8.9
2018-Apr-18 03:00N 26°05' W 079°44'4 8.7
2018-Apr-18 02:30N 26°05' W 079°49'4 8.5
2018-Apr-18 02:00N 26°06' W 079°53'4 8.5
2018-Apr-18 01:30N 26°06' W 079°58'5 9.5
2018-Apr-18 01:00N 26°06' W 080°03'3 6.8
2018-Apr-18 00:30N 26°04' W 080°07'1 2.3
2018-Apr-18 00:00N 26°04' W 080°08'0 0.0
2018-Apr-17 23:31N 26°04' W 080°08'0 0.0
2018-Apr-17 23:00N 26°04' W 080°08'0 0.0
2018-Apr-17 22:30N 26°04' W 080°08'0 0.0
2018-Apr-17 22:00N 26°04' W 080°08'0 0.0
2018-Apr-17 21:30N 26°04' W 080°08'0 0.0
2018-Apr-17 21:01N 26°04' W 080°08'0 0.0
2018-Apr-17 20:31N 26°04' W 080°08'0 0.0
2018-Apr-17 20:01N 26°04' W 080°08'0 0.0
2018-Apr-17 19:30N 26°04' W 080°08'1 1.4
2018-Apr-17 19:00N 26°04' W 080°07'3 6.2
2018-Apr-17 18:31N 26°06' W 080°04'4 8.6
2018-Apr-17 18:00N 26°09' W 080°01'4 8.9
2018-Apr-17 17:31N 26°10' W 079°56'4 8.3
2018-Apr-17 17:01N 26°11' W 079°52'4 7.9
2018-Apr-17 16:27N 26°12' W 079°47'11 0.8
2018-Apr-17 02:54N 26°15' W 079°35'510.3
2018-Apr-17 02:25N 26°13' W 079°40'4 9.9
2018-Apr-17 01:59N 26°12' W 079°45'510.3
2018-Apr-17 01:29N 26°09' W 079°49'4 8.2
2018-Apr-17 01:00N 26°09' W 079°54'5 9.8
2018-Apr-17 00:30N 26°08' W 079°59'5 9.4
2018-Apr-17 00:00N 26°06' W 080°04'3 6.5
2018-Apr-16 23:30N 26°04' W 080°07'1 1.9
2018-Apr-16 23:00N 26°04' W 080°08'0 0.0
2018-Apr-16 22:30N 26°04' W 080°08'0 0.0
2018-Apr-16 22:01N 26°04' W 080°08'0 0.0
2018-Apr-16 21:31N 26°04' W 080°08'0 0.0
2018-Apr-16 21:00N 26°04' W 080°08'0 0.0
2018-Apr-16 20:31N 26°04' W 080°08'0 0.0
2018-Apr-16 20:00N 26°04' W 080°08'0 0.0
2018-Apr-16 19:31N 26°04' W 080°08'0 0.0
2018-Apr-16 19:01N 26°04' W 080°08'0 0.0
2018-Apr-16 18:30N 26°04' W 080°08'0 0.0
2018-Apr-16 18:01N 26°04' W 080°08'0 0.6
2018-Apr-16 17:31N 26°04' W 080°07'3 5.5
2018-Apr-16 17:01N 26°06' W 080°05'5 9.6
2018-Apr-16 16:30N 26°04' W 080°00'510.0
2018-Apr-16 15:59N 26°02' W 079°55'5 9.6
2018-Apr-16 15:29N 25°60' W 079°50'4 9.4
2018-Apr-16 15:00N 25°57' W 079°46'5 9.3
2018-Apr-16 14:29N 25°55' W 079°42'6 0.2
2018-Apr-15 08:45N 25°51' W 079°36'2 5.6
2018-Apr-15 08:29N 25°52' W 079°37'3 5.4
2018-Apr-15 08:00N 25°53' W 079°40'3 5.4
2018-Apr-15 07:30N 25°55' W 079°42'3 5.4
2018-Apr-15 06:59N 25°56' W 079°45'3 5.6
2018-Apr-15 06:30N 25°57' W 079°48'3 5.5
2018-Apr-15 05:58N 25°59' W 079°51'3 6.0
2018-Apr-15 05:30N 25°60' W 079°53'3 6.5
2018-Apr-15 05:00N 26°02' W 079°57'4 7.2
2018-Apr-15 04:30N 26°03' W 080°00'4 7.4
2018-Apr-15 04:00N 26°05' W 080°04'3 6.1
2018-Apr-15 03:30N 26°05' W 080°07'1 2.6
2018-Apr-15 03:00N 26°04' W 080°08'0 0.0
2018-Apr-15 02:31N 26°04' W 080°08'0 0.0
2018-Apr-15 02:01N 26°04' W 080°08'0 0.0
2018-Apr-15 01:30N 26°04' W 080°08'0 0.0
2018-Apr-15 01:01N 26°04' W 080°08'0 0.0
2018-Apr-15 00:31N 26°04' W 080°08'0 0.0
2018-Apr-15 00:00N 26°04' W 080°08'0 0.0
2018-Apr-14 23:30N 26°04' W 080°08'0 0.0
2018-Apr-14 23:01N 26°04' W 080°08'0 0.1
2018-Apr-14 22:31N 26°04' W 080°08'0 0.0
2018-Apr-14 22:01N 26°04' W 080°08'0 0.0
2018-Apr-14 21:31N 26°04' W 080°08'0 0.0
2018-Apr-14 21:01N 26°04' W 080°08'0 0.0
2018-Apr-14 20:30N 26°04' W 080°08'0 0.0
2018-Apr-14 20:00N 26°04' W 080°08'0 0.0
2018-Apr-14 19:30N 26°04' W 080°08'0 0.0
2018-Apr-14 19:00N 26°04' W 080°08'0 0.0
2018-Apr-14 18:30N 26°04' W 080°08'0 0.0
2018-Apr-14 18:00N 26°04' W 080°08'0 0.0
2018-Apr-14 17:30N 26°04' W 080°08'0 0.0
2018-Apr-14 17:00N 26°04' W 080°08'0 0.0
2018-Apr-14 16:30N 26°04' W 080°08'0 0.0
2018-Apr-14 16:00N 26°04' W 080°08'0 0.0
2018-Apr-14 15:31N 26°04' W 080°08'0 0.0
2018-Apr-14 15:00N 26°04' W 080°08'0 0.1
2018-Apr-14 14:30N 26°04' W 080°08'2 4.7
2018-Apr-14 14:00N 26°06' W 080°06'510.1
2018-Apr-14 13:30N 26°05' W 080°01'510.5
2018-Apr-14 13:00N 26°03' W 079°55'510.3
2018-Apr-14 12:30N 26°01' W 079°50'  
2018-Apr-11 07:17N 25°58' W 079°38'2 8.7
2018-Apr-11 07:00N 25°59' W 079°41'4 8.3
2018-Apr-11 06:30N 26°00' W 079°45'4 8.1
2018-Apr-11 05:59N 26°01' W 079°50'4 7.7
2018-Apr-11 05:30N 26°03' W 079°54'4 7.4
2018-Apr-11 05:00N 26°04' W 079°58'4 7.2
2018-Apr-11 04:28N 26°05' W 080°02'4 9.3
2018-Apr-11 04:01N 26°06' W 080°06'2 4.8
2018-Apr-11 03:29N 26°04' W 080°08'0 0.1
2018-Apr-11 02:59N 26°04' W 080°08'0 0.0
2018-Apr-11 02:29N 26°04' W 080°08'0 0.0
2018-Apr-11 01:59N 26°04' W 080°08'0 0.0
2018-Apr-11 01:30N 26°04' W 080°08'0 0.4
2018-Apr-11 01:00N 26°04' W 080°08'2 3.5
2018-Apr-11 00:30N 26°05' W 080°07'5 8.1
2018-Apr-10 23:56N 26°05' W 080°02'410.3
2018-Apr-10 23:30N 26°03' W 079°57'  
2018-Apr-08 09:00N 25°58' W 079°37'5 9.1
2018-Apr-08 08:30N 25°59' W 079°42'4 8.4
2018-Apr-08 08:00N 26°01' W 079°46'4 8.5
2018-Apr-08 07:30N 26°02' W 079°51'4 8.8
2018-Apr-08 07:00N 26°03' W 079°55'5 9.1
2018-Apr-08 06:30N 26°04' W 080°00'5 9.2
2018-Apr-08 06:00N 26°06' W 080°05'2 4.3
2018-Apr-08 05:30N 26°04' W 080°07'1 2.2
2018-Apr-08 05:00N 26°04' W 080°08'0 0.0
2018-Apr-08 04:30N 26°04' W 080°08'0 0.0
2018-Apr-08 04:00N 26°04' W 080°08'  

Dump ship's entire track history